createdAt,value
2018-09-04T00:01:02.318Z,17.80
2018-09-04T00:03:32.038Z,17.88
2018-09-04T00:06:01.535Z,17.74
2018-09-04T00:08:31.259Z,17.87
2018-09-04T00:11:00.758Z,17.99
2018-09-04T00:13:30.454Z,17.95
2018-09-04T00:16:00.280Z,17.89
2018-09-04T00:18:29.668Z,17.80
2018-09-04T00:20:59.683Z,17.78
2018-09-04T00:23:29.499Z,17.85
2018-09-04T00:25:59.049Z,17.98
2018-09-04T00:28:28.494Z,17.94
2018-09-04T00:30:58.362Z,17.99
2018-09-04T00:33:28.437Z,17.96
2018-09-04T00:35:57.914Z,17.97
2018-09-04T00:38:27.589Z,17.92
2018-09-04T00:40:57.063Z,17.89
2018-09-04T00:43:26.572Z,17.99
2018-09-04T00:45:56.073Z,17.95
2018-09-04T00:48:25.979Z,17.92
2018-09-04T00:50:55.323Z,17.90
2018-09-04T00:53:25.222Z,17.93
2018-09-04T00:55:54.522Z,17.76
2018-09-04T00:58:24.046Z,17.69
2018-09-04T01:00:53.570Z,17.65
2018-09-04T01:03:23.929Z,17.76
2018-09-04T01:05:54.159Z,17.76
2018-09-04T01:08:23.878Z,17.75
2018-09-04T01:10:53.395Z,17.73
2018-09-04T01:13:22.953Z,17.68
2018-09-04T01:15:52.417Z,17.59
2018-09-04T01:18:21.890Z,17.60
2018-09-04T01:20:51.606Z,17.46
2018-09-04T01:23:21.520Z,17.57
2018-09-04T01:25:51.236Z,17.49
2018-09-04T01:28:21.701Z,17.42
2018-09-04T01:30:51.490Z,17.24
2018-09-04T01:33:21.061Z,17.28
2018-09-04T01:35:50.434Z,17.15
2018-09-04T01:38:20.686Z,17.24
2018-09-04T01:40:50.331Z,17.19
2018-09-04T01:43:20.382Z,17.06
2018-09-04T01:45:50.062Z,16.97
2018-09-04T01:48:19.423Z,17.09
2018-09-04T01:50:49.479Z,17.00
2018-09-04T01:53:18.842Z,16.98
2018-09-04T01:55:48.400Z,16.88
2018-09-04T01:58:17.690Z,16.88
2018-09-04T02:00:47.366Z,17.01
2018-09-04T02:03:17.462Z,17.11
2018-09-04T02:05:47.006Z,17.11
2018-09-04T02:08:16.699Z,17.05
2018-09-04T02:10:46.449Z,16.76
2018-09-04T02:13:15.714Z,17.07
2018-09-04T02:15:45.498Z,17.03
2018-09-04T02:18:15.657Z,16.98
2018-09-04T02:20:45.019Z,16.91
2018-09-04T02:23:14.583Z,16.98
2018-09-04T02:25:43.894Z,16.93
2018-09-04T02:28:13.472Z,17.00
2018-09-04T02:30:42.895Z,17.01
2018-09-04T02:33:12.467Z,16.93
2018-09-04T02:35:42.061Z,16.94
2018-09-04T02:38:11.562Z,16.98
2018-09-04T02:40:41.510Z,16.88
2018-09-04T02:43:10.870Z,16.82
2018-09-04T02:45:40.291Z,16.78
2018-09-04T02:48:09.843Z,16.85
2018-09-04T02:50:39.078Z,16.86
2018-09-04T02:53:08.629Z,16.82
2018-09-04T02:55:38.111Z,16.71
2018-09-04T02:58:08.406Z,16.60
2018-09-04T03:00:37.946Z,16.62
2018-09-04T03:03:07.605Z,16.55
2018-09-04T03:05:37.383Z,16.49
2018-09-04T03:08:07.044Z,16.53
2018-09-04T03:10:36.754Z,16.48
2018-09-04T03:13:06.001Z,16.58
2018-09-04T03:15:35.796Z,16.54
2018-09-04T03:18:05.510Z,16.49
2018-09-04T03:20:35.230Z,16.39
2018-09-04T03:23:04.756Z,16.47
2018-09-04T03:25:35.686Z,16.39
2018-09-04T03:28:05.163Z,16.32
2018-09-04T03:30:35.035Z,16.35
2018-09-04T03:33:04.576Z,16.28
2018-09-04T03:35:34.522Z,16.37
2018-09-04T03:38:04.035Z,16.40
2018-09-04T03:40:33.891Z,16.23
2018-09-04T03:43:03.630Z,16.07
2018-09-04T03:45:33.970Z,16.11
2018-09-04T03:48:04.110Z,16.11
2018-09-04T03:50:33.787Z,16.04
2018-09-04T03:53:03.286Z,16.00
2018-09-04T03:55:32.925Z,15.96
2018-09-04T03:58:02.172Z,16.10
2018-09-04T04:00:31.680Z,16.02
2018-09-04T04:03:01.756Z,15.94
2018-09-04T04:05:31.681Z,15.85
2018-09-04T04:08:01.191Z,15.85
2018-09-04T04:10:31.470Z,15.82
2018-09-04T04:13:01.754Z,15.94
2018-09-04T04:15:31.731Z,16.05
2018-09-04T04:18:01.843Z,15.98
2018-09-04T04:20:31.347Z,15.95
2018-09-04T04:23:00.876Z,15.87
2018-09-04T04:25:30.175Z,15.77
2018-09-04T04:28:00.039Z,15.60
2018-09-04T04:30:29.510Z,15.71
2018-09-04T04:32:58.991Z,15.66
2018-09-04T04:35:28.323Z,15.66
2018-09-04T04:37:57.845Z,15.87
2018-09-04T04:40:27.359Z,15.93
2018-09-04T04:42:57.231Z,15.81
2018-09-04T04:45:27.013Z,15.68
2018-09-04T04:47:56.580Z,15.63
2018-09-04T04:50:25.988Z,15.67
2018-09-04T04:52:56.149Z,15.72
2018-09-04T04:55:26.063Z,15.62
2018-09-04T04:57:55.306Z,15.60
2018-09-04T05:00:25.698Z,15.63
2018-09-04T05:02:55.151Z,15.64
2018-09-04T05:05:24.706Z,15.64
2018-09-04T05:07:54.366Z,15.76
2018-09-04T05:10:24.095Z,15.75
2018-09-04T05:12:53.607Z,15.76
2018-09-04T05:15:22.863Z,15.78
2018-09-04T05:17:52.571Z,15.82
2018-09-04T05:20:25.074Z,15.92
2018-09-04T05:22:54.301Z,16.07
2018-09-04T05:25:23.631Z,16.00
2018-09-04T05:27:53.478Z,16.03
2018-09-04T05:30:22.991Z,16.08
2018-09-04T05:32:57.683Z,16.06
2018-09-04T05:35:28.266Z,16.05
2018-09-04T05:37:57.651Z,16.03
2018-09-04T05:40:27.562Z,16.00
2018-09-04T05:42:59.430Z,16.07
2018-09-04T05:45:30.678Z,16.08
2018-09-04T05:48:02.011Z,16.11
2018-09-04T05:50:32.030Z,16.20
2018-09-04T05:53:01.868Z,16.22
2018-09-04T05:55:31.830Z,16.14
2018-09-04T05:58:02.011Z,16.25
2018-09-04T06:00:35.982Z,16.24
2018-09-04T06:03:05.638Z,16.41
2018-09-04T06:05:35.558Z,16.46
2018-09-04T06:08:05.037Z,16.51
2018-09-04T06:10:34.303Z,16.56
2018-09-04T06:13:03.828Z,16.47
2018-09-04T06:15:33.309Z,16.69
2018-09-04T06:18:02.822Z,16.72
2018-09-04T06:20:32.298Z,16.83
2018-09-04T06:23:02.039Z,16.87
2018-09-04T06:25:31.527Z,16.90
2018-09-04T06:28:01.483Z,17.07
2018-09-04T06:30:31.222Z,17.03
2018-09-04T06:33:01.152Z,17.07
2018-09-04T06:35:30.637Z,17.34
2018-09-04T06:38:00.154Z,17.35
2018-09-04T06:40:29.590Z,17.51
2018-09-04T06:42:59.099Z,17.53
2018-09-04T06:45:28.607Z,17.53
2018-09-04T06:47:58.290Z,17.67
2018-09-04T06:50:27.823Z,17.80
2018-09-04T06:52:57.856Z,17.88
2018-09-04T06:55:27.502Z,18.10
2018-09-04T06:57:56.876Z,18.08
2018-09-04T07:00:26.547Z,17.98
2018-09-04T07:02:56.134Z,17.82
2018-09-04T07:05:25.887Z,17.82
2018-09-04T07:07:55.159Z,17.66
2018-09-04T07:10:25.015Z,17.72
2018-09-04T07:12:54.375Z,17.78
2018-09-04T07:15:24.750Z,17.88
2018-09-04T07:17:54.655Z,17.94
2018-09-04T07:20:24.191Z,18.05
2018-09-04T07:22:53.467Z,18.26
2018-09-04T07:25:23.099Z,18.39
2018-09-04T07:27:53.043Z,18.20
2018-09-04T07:30:23.049Z,18.64
2018-09-04T07:32:53.136Z,18.78
2018-09-04T07:35:22.599Z,18.80
2018-09-04T07:37:52.701Z,18.92
2018-09-04T07:40:23.062Z,19.04
2018-09-04T07:42:53.011Z,19.23
2018-09-04T07:45:22.254Z,19.27
2018-09-04T07:47:52.026Z,19.39
2018-09-04T07:50:21.482Z,19.67
2018-09-04T07:52:51.209Z,20.20
2018-09-04T07:55:21.111Z,20.53
2018-09-04T07:57:50.353Z,21.18
2018-09-04T08:00:19.910Z,21.30
2018-09-04T08:02:49.376Z,21.88
2018-09-04T08:05:20.318Z,21.90
2018-09-04T08:07:49.911Z,22.09
2018-09-04T08:10:19.154Z,21.92
2018-09-04T08:12:48.662Z,22.26
2018-09-04T08:15:18.222Z,22.57
2018-09-04T08:17:47.442Z,23.47
2018-09-04T08:20:16.995Z,23.59
2018-09-04T08:22:46.466Z,23.78
2018-09-04T08:25:16.386Z,23.37
2018-09-04T08:27:45.874Z,23.40
2018-09-04T08:30:15.460Z,24.07
2018-09-04T08:32:44.944Z,25.02
2018-09-04T08:35:15.426Z,24.06
2018-09-04T08:37:45.121Z,26.15
2018-09-04T08:40:15.094Z,27.49
2018-09-04T08:42:44.891Z,28.82
2018-09-04T08:45:14.338Z,28.18
2018-09-04T08:47:44.252Z,24.78
2018-09-04T08:50:13.688Z,23.25
2018-09-04T08:52:43.899Z,24.49
2018-09-04T08:55:13.217Z,23.43
2018-09-04T08:57:44.294Z,24.10
2018-09-04T09:00:15.059Z,24.37
2018-09-04T09:02:44.473Z,24.92
2018-09-04T09:05:14.699Z,24.72
2018-09-04T09:07:44.495Z,24.85
2018-09-04T09:10:14.492Z,25.79
2018-09-04T09:12:43.781Z,25.89
2018-09-04T09:15:13.266Z,26.35
2018-09-04T09:17:42.743Z,25.49
2018-09-04T09:20:12.314Z,23.26
2018-09-04T09:22:41.975Z,22.80
2018-09-04T09:25:11.880Z,23.61
2018-09-04T09:27:41.433Z,24.15
2018-09-04T09:30:10.911Z,23.90
2018-09-04T09:32:40.378Z,24.53
2018-09-04T09:35:10.407Z,25.89
2018-09-04T09:37:40.226Z,25.04
2018-09-04T09:40:09.709Z,25.70
2018-09-04T09:42:39.290Z,26.72
2018-09-04T09:45:08.536Z,27.80
2018-09-04T09:47:43.264Z,27.35
2018-09-04T09:50:13.102Z,26.40
2018-09-04T09:52:42.956Z,27.26
2018-09-04T09:55:12.266Z,27.69
2018-09-04T09:57:43.326Z,28.38
2018-09-04T10:00:19.169Z,27.37
2018-09-04T10:02:55.686Z,28.12
2018-09-04T10:05:25.229Z,27.73
2018-09-04T10:07:54.952Z,29.02
2018-09-04T10:10:24.479Z,29.33
2018-09-04T10:12:54.582Z,29.04
2018-09-04T10:15:24.302Z,28.97
2018-09-04T10:17:54.412Z,28.89
2018-09-04T10:20:23.921Z,28.48
2018-09-04T10:22:53.684Z,29.74
2018-09-04T10:25:23.395Z,30.29
2018-09-04T10:27:53.882Z,28.65
2018-09-04T10:30:23.179Z,29.61
2018-09-04T10:32:54.091Z,28.03
2018-09-04T10:35:24.035Z,28.37
2018-09-04T10:37:54.224Z,27.56
2018-09-04T10:40:28.812Z,27.43
2018-09-04T10:42:58.313Z,26.97
2018-09-04T10:45:33.010Z,27.04
2018-09-04T10:48:02.279Z,26.99
2018-09-04T10:50:31.759Z,26.99
2018-09-04T10:53:02.026Z,26.71
2018-09-04T10:55:31.609Z,25.91
2018-09-04T10:58:01.073Z,25.08
2018-09-04T11:00:30.914Z,24.65
2018-09-04T11:03:00.155Z,26.43
2018-09-04T11:05:29.618Z,26.54
2018-09-04T11:07:59.428Z,25.38
2018-09-04T11:10:29.399Z,25.81
2018-09-04T11:12:58.767Z,25.91
2018-09-04T11:15:28.186Z,25.85
2018-09-04T11:17:58.199Z,25.88
2018-09-04T11:20:28.056Z,26.07
2018-09-04T11:22:57.735Z,26.29
2018-09-04T11:25:27.210Z,26.79
2018-09-04T11:27:56.718Z,27.11
2018-09-04T11:30:26.248Z,25.99
2018-09-04T11:32:55.774Z,25.45
2018-09-04T11:35:25.759Z,24.78
2018-09-04T11:37:55.374Z,25.11
2018-09-04T11:40:25.351Z,25.92
2018-09-04T11:42:55.180Z,26.39
2018-09-04T11:45:24.698Z,26.71
2018-09-04T11:47:53.990Z,27.29
2018-09-04T11:50:23.330Z,28.31
2018-09-04T11:52:53.218Z,28.95
2018-09-04T11:55:22.444Z,29.99
2018-09-04T11:57:52.074Z,30.53
2018-09-04T12:00:51.715Z,31.04
2018-09-04T12:03:21.179Z,30.52
2018-09-04T12:05:50.675Z,28.29
2018-09-04T12:08:20.149Z,29.65
2018-09-04T12:10:49.887Z,27.75
2018-09-04T12:13:24.530Z,26.29
2018-09-04T12:15:53.983Z,26.80
2018-09-04T12:18:23.214Z,26.39
2018-09-04T12:20:54.230Z,26.99
2018-09-04T12:23:24.151Z,28.43
2018-09-04T12:25:55.581Z,28.23
2018-09-04T12:28:25.678Z,29.35
2018-09-04T12:30:55.546Z,28.84
2018-09-04T12:33:25.298Z,29.55
2018-09-04T12:35:54.897Z,29.35
2018-09-04T12:38:26.398Z,29.12
2018-09-04T12:40:56.196Z,29.20
2018-09-04T12:43:26.736Z,28.70
2018-09-04T12:45:56.990Z,28.78
2018-09-04T12:48:29.946Z,28.86
2018-09-04T12:51:00.766Z,28.86
2018-09-04T12:53:31.167Z,28.53
2018-09-04T12:56:00.643Z,28.30
2018-09-04T12:58:30.082Z,27.96
2018-09-04T13:00:59.855Z,27.52
2018-09-04T13:03:29.845Z,27.46
2018-09-04T13:05:59.418Z,27.27
2018-09-04T13:08:30.405Z,27.23
2018-09-04T13:11:00.023Z,27.17
2018-09-04T13:13:29.417Z,27.06
2018-09-04T13:16:01.247Z,27.13
2018-09-04T13:18:31.102Z,27.18
2018-09-04T13:21:02.465Z,26.68
2018-09-04T13:23:33.528Z,27.22
2018-09-04T13:26:03.934Z,26.56
2018-09-04T13:28:34.278Z,26.97
2018-09-04T13:31:03.806Z,27.43
2018-09-04T13:33:33.079Z,27.25
2018-09-04T13:36:02.359Z,27.54
2018-09-04T13:38:31.811Z,27.30
2018-09-04T13:41:07.000Z,27.42
2018-09-04T13:43:37.169Z,27.39
2018-09-04T13:46:06.929Z,27.41
2018-09-04T13:48:36.591Z,27.60
2018-09-04T13:51:06.981Z,27.59
2018-09-04T13:53:36.214Z,27.69
2018-09-04T13:56:05.974Z,26.73
2018-09-04T13:58:35.194Z,26.42
2018-09-04T14:01:05.181Z,26.57
2018-09-04T14:03:34.656Z,26.54
2018-09-04T14:06:04.998Z,27.07
2018-09-04T14:08:34.222Z,26.70
2018-09-04T14:11:03.574Z,26.46
2018-09-04T14:13:33.080Z,26.49
2018-09-04T14:16:06.454Z,26.55
2018-09-04T14:18:35.983Z,27.12
2018-09-04T14:21:06.007Z,26.51
2018-09-04T14:23:35.403Z,27.09
2018-09-04T14:26:04.746Z,27.47
2018-09-04T14:28:41.692Z,27.66
2018-09-04T14:31:04.170Z,27.31
2018-09-04T14:33:33.643Z,27.83
2018-09-04T14:36:03.235Z,27.29
2018-09-04T14:38:32.622Z,27.90
2018-09-04T14:41:02.175Z,27.16
2018-09-04T14:43:31.674Z,27.82
2018-09-04T14:46:01.052Z,27.67
2018-09-04T14:48:30.438Z,26.99
2018-09-04T14:50:59.948Z,27.02
2018-09-04T14:53:29.943Z,27.13
2018-09-04T14:55:59.371Z,26.89
2018-09-04T14:58:29.486Z,26.67
2018-09-04T15:00:59.009Z,26.44
2018-09-04T15:03:28.895Z,26.33
2018-09-04T15:05:58.168Z,26.22
2018-09-04T15:08:28.638Z,26.11
2018-09-04T15:10:57.904Z,25.90
2018-09-04T15:13:28.310Z,25.96
2018-09-04T15:15:57.731Z,26.04
2018-09-04T15:18:27.650Z,26.02
2018-09-04T15:20:57.550Z,25.95
2018-09-04T15:23:27.367Z,25.80
2018-09-04T15:25:57.138Z,26.11
2018-09-04T15:28:27.996Z,26.19
2018-09-04T15:30:57.579Z,26.25
2018-09-04T15:33:27.263Z,26.47
2018-09-04T15:35:57.364Z,26.38
2018-09-04T15:38:27.351Z,26.42
2018-09-04T15:40:57.023Z,26.45
2018-09-04T15:43:26.538Z,26.57
2018-09-04T15:45:56.037Z,26.64
2018-09-04T15:48:25.735Z,26.64
2018-09-04T15:50:55.670Z,26.66
2018-09-04T15:53:25.204Z,26.52
2018-09-04T15:55:54.457Z,26.61
2018-09-04T15:58:23.998Z,26.49
2018-09-04T16:00:53.446Z,26.39
2018-09-04T16:03:22.992Z,26.16
2018-09-04T16:05:53.174Z,26.17
2018-09-04T16:08:22.838Z,26.17
2018-09-04T16:10:52.426Z,26.06
2018-09-04T16:13:21.897Z,25.82
2018-09-04T16:15:51.336Z,25.71
2018-09-04T16:18:20.819Z,25.93
2018-09-04T16:20:50.084Z,25.80
2018-09-04T16:23:19.623Z,25.95
2018-09-04T16:25:49.125Z,25.77
2018-09-04T16:28:18.411Z,25.65
2018-09-04T16:30:48.338Z,25.47
2018-09-04T16:33:17.839Z,25.59
2018-09-04T16:35:47.315Z,25.53
2018-09-04T16:38:16.896Z,25.47
2018-09-04T16:40:46.325Z,25.37
2018-09-04T16:43:16.647Z,25.25
2018-09-04T16:45:46.196Z,25.19
2018-09-04T16:48:15.771Z,25.25
2018-09-04T16:50:45.443Z,25.24
2018-09-04T16:53:14.880Z,25.18
2018-09-04T16:55:44.423Z,25.06
2018-09-04T16:58:13.914Z,24.98
2018-09-04T17:00:43.412Z,24.89
2018-09-04T17:03:12.665Z,24.81
2018-09-04T17:05:42.512Z,24.71
2018-09-04T17:08:11.946Z,24.53
2018-09-04T17:10:41.237Z,24.49
2018-09-04T17:13:10.602Z,24.52
2018-09-04T17:15:40.054Z,24.42
2018-09-04T17:18:09.310Z,24.36
2018-09-04T17:20:38.631Z,24.43
2018-09-04T17:23:08.749Z,24.38
2018-09-04T17:25:38.303Z,24.24
2018-09-04T17:28:07.996Z,24.23
2018-09-04T17:30:37.279Z,24.15
2018-09-04T17:33:06.856Z,24.05
2018-09-04T17:35:36.266Z,23.92
2018-09-04T17:38:06.210Z,23.88
2018-09-04T17:40:35.724Z,23.82
2018-09-04T17:43:05.195Z,23.81
2018-09-04T17:45:35.111Z,23.67
2018-09-04T17:48:05.269Z,23.67
2018-09-04T17:50:34.933Z,23.61
2018-09-04T17:53:04.663Z,23.45
2018-09-04T17:55:34.840Z,23.43
2018-09-04T17:58:04.326Z,23.46
2018-09-04T18:00:34.008Z,23.27
2018-09-04T18:03:03.507Z,23.09
2018-09-04T18:05:33.563Z,23.26
2018-09-04T18:08:03.330Z,23.03
2018-09-04T18:10:32.814Z,22.99
2018-09-04T18:13:02.393Z,22.95
2018-09-04T18:15:32.062Z,22.88
2018-09-04T18:18:01.566Z,22.89
2018-09-04T18:20:31.264Z,22.72
2018-09-04T18:23:00.969Z,22.63
2018-09-04T18:25:30.811Z,22.58
2018-09-04T18:28:00.780Z,22.54
2018-09-04T18:30:30.003Z,22.48
2018-09-04T18:32:59.439Z,22.51
2018-09-04T18:35:28.702Z,22.41
2018-09-04T18:37:58.243Z,22.39
2018-09-04T18:40:27.712Z,22.40
2018-09-04T18:42:58.155Z,22.25
2018-09-04T18:45:59.278Z,22.18
2018-09-04T18:48:28.564Z,22.16
2018-09-04T18:50:58.172Z,22.11
2018-09-04T18:53:27.402Z,22.08
2018-09-04T18:55:56.909Z,22.02
2018-09-04T18:58:26.407Z,21.93
2018-09-04T19:00:55.931Z,21.89
2018-09-04T19:03:25.389Z,22.03
2018-09-04T19:05:55.175Z,21.82
2018-09-04T19:08:24.414Z,21.79
2018-09-04T19:10:53.938Z,21.79
2018-09-04T19:13:23.442Z,21.65
2018-09-04T19:15:52.936Z,21.70
2018-09-04T19:18:56.020Z,21.64
2018-09-04T19:21:26.051Z,21.64
2018-09-04T19:23:55.861Z,21.71
2018-09-04T19:26:25.518Z,21.60
2018-09-04T19:28:54.859Z,21.61
2018-09-04T19:31:24.663Z,21.24
2018-09-04T19:33:53.894Z,21.36
2018-09-04T19:36:23.150Z,21.25
2018-09-04T19:38:52.871Z,21.15
2018-09-04T19:41:22.128Z,21.19
2018-09-04T19:43:51.479Z,21.22
2018-09-04T19:46:21.308Z,21.29
2018-09-04T19:48:51.177Z,21.06
2018-09-04T19:51:20.482Z,21.00
2018-09-04T19:53:49.696Z,21.09
2018-09-04T19:56:19.755Z,21.10
2018-09-04T19:58:50.040Z,21.20
2018-09-04T20:01:20.514Z,21.24
2018-09-04T20:03:49.986Z,21.23
2018-09-04T20:06:19.515Z,21.16
2018-09-04T20:08:49.012Z,21.04
2018-09-04T20:11:18.524Z,21.08
2018-09-04T20:13:48.014Z,21.19
2018-09-04T20:16:17.508Z,20.98
2018-09-04T20:18:47.462Z,21.19
2018-09-04T20:21:17.570Z,21.09
2018-09-04T20:23:47.512Z,21.02
2018-09-04T20:26:16.944Z,20.88
2018-09-04T20:28:47.105Z,21.13
2018-09-04T20:31:17.021Z,21.06
2018-09-04T20:33:46.680Z,20.97
2018-09-04T20:36:16.184Z,20.96
2018-09-04T20:38:45.770Z,21.02
2018-09-04T20:41:15.255Z,20.76
2018-09-04T20:43:44.727Z,20.82
2018-09-04T20:46:14.382Z,20.61
2018-09-04T20:48:43.786Z,20.71
2018-09-04T20:51:13.250Z,20.66
2018-09-04T20:53:42.966Z,20.57
2018-09-04T20:56:12.467Z,20.40
2018-09-04T20:58:52.891Z,20.49
2018-09-04T21:01:33.420Z,20.60
2018-09-04T21:04:13.954Z,20.52
2018-09-04T21:06:50.781Z,20.59
2018-09-04T21:09:56.130Z,20.58
2018-09-04T21:12:25.461Z,20.61
2018-09-04T21:14:54.950Z,20.58
2018-09-04T21:17:24.719Z,20.62
2018-09-04T21:19:54.821Z,20.57
2018-09-04T21:22:24.312Z,20.44
2018-09-04T21:24:53.799Z,20.53
2018-09-04T21:27:23.321Z,20.49
2018-09-04T21:29:52.794Z,20.47
2018-09-04T21:32:22.243Z,20.31
2018-09-04T21:34:51.657Z,20.35
2018-09-04T21:37:21.335Z,20.34
2018-09-04T21:39:50.968Z,20.30
2018-09-04T21:42:21.635Z,20.30
2018-09-04T21:44:51.271Z,20.25
2018-09-04T21:47:21.233Z,20.31
2018-09-04T21:49:51.049Z,20.19
2018-09-04T21:52:20.831Z,20.21
2018-09-04T21:54:50.334Z,20.23
2018-09-04T21:57:20.203Z,20.16
2018-09-04T21:59:49.759Z,20.25
2018-09-04T22:02:19.042Z,20.12
2018-09-04T22:04:49.564Z,20.16
2018-09-04T22:07:19.065Z,20.12
2018-09-04T22:09:48.599Z,20.10
2018-09-04T22:12:17.850Z,20.28
2018-09-04T22:14:47.235Z,20.17
2018-09-04T22:17:16.710Z,20.14
2018-09-04T22:19:46.733Z,20.01
2018-09-04T22:22:15.934Z,20.05
2018-09-04T22:24:45.448Z,20.00
2018-09-04T22:27:15.711Z,19.96
2018-09-04T22:29:45.393Z,20.05
2018-09-04T22:32:14.754Z,19.93
2018-09-04T22:34:44.694Z,19.92
2018-09-04T22:37:14.208Z,20.04
2018-09-04T22:39:43.815Z,19.96
2018-09-04T22:42:13.184Z,19.98
2018-09-04T22:44:43.266Z,19.98
2018-09-04T22:47:12.804Z,19.97
2018-09-04T22:49:46.459Z,19.88
2018-09-04T22:52:15.910Z,19.84
2018-09-04T22:54:45.403Z,19.84
2018-09-04T22:57:14.924Z,19.81
2018-09-04T22:59:44.435Z,19.91
2018-09-04T23:02:13.929Z,19.85
2018-09-04T23:04:43.439Z,19.80
2018-09-04T23:07:13.433Z,19.84
2018-09-04T23:09:42.676Z,19.71
2018-09-04T23:12:12.936Z,19.73
2018-09-04T23:14:42.917Z,19.76
2018-09-04T23:17:12.462Z,19.75
2018-09-04T23:19:41.890Z,19.84
2018-09-04T23:22:11.327Z,19.85
2018-09-04T23:24:40.663Z,19.88
2018-09-04T23:27:10.399Z,19.67
2018-09-04T23:29:39.897Z,19.78
2018-09-04T23:32:09.783Z,19.80
2018-09-04T23:34:39.955Z,19.59
2018-09-04T23:37:09.337Z,19.73
2018-09-04T23:39:38.729Z,19.76
2018-09-04T23:42:08.308Z,19.78
2018-09-04T23:44:37.545Z,19.66
2018-09-04T23:47:07.111Z,19.61
2018-09-04T23:49:36.557Z,19.62
2018-09-04T23:52:06.329Z,19.66
2018-09-04T23:54:35.850Z,19.58
2018-09-04T23:57:05.691Z,19.71
2018-09-04T23:59:35.000Z,19.58
